Time;durP1;ratioP1;P1;durP2;ratioP2;P2;SDS_P1;SDS_P2;PMS_P1;PMS_P2;Temp;Humidity;BMP_temperature;BMP_pressure;BME280_temperature;BME280_humidity;BME280_pressure;Samples;Min_cycle;Max_cycle;Signal;HPM_P1;HPM_P2
2024/02/14 00:01:36;;;;;;;3.22;2.92;;;;;;;31.63;63.55;101293.78;5036956;28;65798;-35
2024/02/14 00:04:07;;;;;;;3.92;2.90;;;;;;;31.60;63.67;101293.16;5037485;28;70931;-33
2024/02/14 00:06:38;;;;;;;3.42;3.10;;;;;;;31.60;63.44;101298.59;5037924;28;66123;-33
2024/02/14 00:09:09;;;;;;;3.15;2.95;;;;;;;31.59;63.63;101296.94;5036736;28;69250;-33
2024/02/14 00:11:40;;;;;;;5.43;2.80;;;;;;;31.58;63.68;101294.41;5039371;28;65707;-34
2024/02/14 00:14:10;;;;;;;3.15;2.85;;;;;;;31.59;63.49;101296.94;5039435;28;70305;-35
2024/02/14 00:16:41;;;;;;;3.25;3.05;;;;;;;31.61;63.45;101297.53;5036372;28;66765;-33
2024/02/14 00:19:11;;;;;;;3.30;3.00;;;;;;;31.60;63.87;101298.59;5039161;28;70330;-35
2024/02/14 00:21:42;;;;;;;3.95;3.65;;;;;;;31.59;63.51;101313.19;5039397;28;66358;-34
2024/02/14 00:24:13;;;;;;;4.80;3.00;;;;;;;31.55;63.63;101311.94;5036748;28;70214;-33
2024/02/14 00:26:46;;;;;;;3.05;2.75;;;;;;;31.58;63.59;101313.41;5039914;28;65477;-33
2024/02/14 00:29:16;;;;;;;3.33;3.13;;;;;;;31.57;63.74;101319.88;5038909;28;70242;-33
2024/02/14 00:31:47;;;;;;;3.63;3.33;;;;;;;31.58;63.70;101322.38;5037144;28;65615;-34
2024/02/14 00:34:22;;;;;;;4.10;3.80;;;;;;;31.58;63.87;101322.38;5038003;28;70054;-33
2024/02/14 00:36:53;;;;;;;3.65;3.35;;;;;;;31.55;63.62;101327.38;5037714;28;66324;-33
2024/02/14 00:39:23;;;;;;;3.75;3.40;;;;;;;31.59;63.69;101334.91;5040642;28;69918;-33
2024/02/14 00:41:54;;;;;;;5.38;3.85;;;;;;;31.57;63.78;101334.25;5039739;28;66190;-33
2024/02/14 00:44:25;;;;;;;3.40;3.20;;;;;;;31.56;63.89;101340.72;5028069;28;68841;-33
2024/02/14 00:47:00;;;;;;;4.20;3.38;;;;;;;31.57;63.75;101342.41;5038507;28;66041;-33
2024/02/14 00:49:34;;;;;;;5.50;3.65;;;;;;;31.56;63.88;101346.13;5040573;28;70600;-33
2024/02/14 00:52:06;;;;;;;5.07;3.22;;;;;;;31.57;63.80;101353.25;5038224;28;66710;-35
2024/02/14 00:54:36;;;;;;;;;;;;;;;31.51;64.23;101348.69;5038823;28;69565;-33
2024/02/14 00:57:06;;;;;;;3.45;3.08;;;;;;;31.58;63.67;101354.91;5038936;28;65586;-35
2024/02/14 00:59:38;;;;;;;3.67;3.37;;;;;;;31.44;63.71;101337.00;5038192;28;70674;-33
2024/02/14 01:02:09;;;;;;;3.38;3.08;;;;;;;31.52;63.30;101355.75;5038981;28;65378;-34
2024/02/14 01:04:39;;;;;;;3.85;3.10;;;;;;;31.56;63.58;101357.00;5034585;28;68646;-33
2024/02/14 01:07:10;;;;;;;3.85;2.97;;;;;;;31.59;63.52;101353.88;5033967;28;66578;-33
2024/02/14 01:09:41;;;;;;;3.55;3.25;;;;;;;31.61;63.59;101359.91;5033925;28;70538;-33
2024/02/14 01:12:11;;;;;;;2.75;2.50;;;;;;;31.60;63.48;101358.25;5033432;28;66080;-33
2024/02/14 01:14:42;;;;;;;3.10;2.70;;;;;;;31.60;63.60;101363.66;5037552;28;69201;-34
2024/02/14 01:17:12;;;;;;;3.00;2.30;;;;;;;31.61;64.04;101364.50;5039605;28;66694;-33
2024/02/14 01:19:43;;;;;;;3.00;2.80;;;;;;;31.60;63.88;101360.94;5037569;28;70274;-33
2024/02/14 01:22:16;;;;;;;5.55;4.80;;;;;;;31.58;63.63;101376.59;5040081;28;66144;-33
2024/02/14 01:25:02;;;;;;;11.10;5.28;;;;;;;31.59;63.93;101370.16;5039068;28;69957;-33
2024/02/14 01:27:33;;;;;;;8.80;5.10;;;;;;;31.60;63.46;101374.50;5037674;28;67387;-33
2024/02/14 01:30:05;;;;;;;4.90;4.40;;;;;;;31.63;63.90;101377.84;5037208;28;70523;-33
2024/02/14 01:32:35;;;;;;;;;;;;;;;31.55;64.01;101373.50;5033353;28;65305;-33
2024/02/14 01:35:06;;;;;;;6.53;4.05;;;;;;;31.65;63.87;101375.72;5032561;28;70299;-33
2024/02/14 01:37:37;;;;;;;4.55;4.18;;;;;;;31.64;64.03;101374.09;5033947;28;65525;-34
2024/02/14 01:40:07;;;;;;;4.20;3.80;;;;;;;31.66;64.19;101382.84;5032462;28;68915;-34
2024/02/14 01:42:52;;;;;;;3.67;3.38;;;;;;;31.65;63.97;101381.16;5033555;28;65352;-34
2024/02/14 01:45:23;;;;;;;4.35;4.00;;;;;;;31.68;63.92;101386.16;5032079;28;69281;-33
2024/02/14 01:48:01;;;;;;;3.45;3.15;;;;;;;31.70;64.08;101378.66;5036321;28;65560;-34
2024/02/14 01:50:34;;;;;;;3.92;3.63;;;;;;;31.69;64.25;101388.66;5040880;28;69814;-34
2024/02/14 01:53:05;;;;;;;4.82;4.38;;;;;;;31.73;63.85;101389.91;5039284;28;66144;-36
2024/02/14 01:55:35;;;;;;;3.60;3.30;;;;;;;31.75;63.77;101393.22;5038283;28;70694;-34
2024/02/14 01:58:06;;;;;;;3.85;3.55;;;;;;;31.72;63.90;101382.81;5042116;28;66037;-35
2024/02/14 02:00:38;;;;;;;4.63;4.22;;;;;;;31.78;64.06;101394.69;5040570;28;69998;-34
2024/02/14 02:03:14;;;;;;;3.53;3.22;;;;;;;31.77;63.86;101393.03;5039162;28;65580;-34
2024/02/14 02:05:44;;;;;;;5.15;4.25;;;;;;;31.79;64.10;101399.91;5040853;28;69432;-33
2024/02/14 02:08:15;;;;;;;3.78;3.47;;;;;;;31.82;64.08;101406.78;5041221;28;66566;-34
2024/02/14 02:10:46;;;;;;;6.68;3.72;;;;;;;31.81;63.98;101405.09;5041697;28;70408;-33
2024/02/14 02:13:38;;;;;;;7.15;4.10;;;;;;;31.84;64.00;101410.09;5041628;28;65934;-34
2024/02/14 02:16:28;;;;;;;7.45;3.72;;;;;;;31.88;63.90;101411.34;5039168;28;68890;-34
2024/02/14 02:19:32;;;;;;;;;;;;;;;31.84;63.82;101407.38;5037771;28;65568;-36
2024/02/14 02:22:23;;;;;;;3.70;3.40;;;;;;;31.93;63.67;101410.72;5040749;28;70664;-33
2024/02/14 02:25:14;;;;;;;3.58;3.38;;;;;;;31.92;63.62;101398.22;5032085;28;64936;-34
2024/02/14 02:28:02;;;;;;;4.80;3.40;;;;;;;31.97;63.47;101401.13;5026077;28;69144;-34
2024/02/14 02:30:38;;;;;;;3.80;3.50;;;;;;;32.00;63.50;101401.50;5040318;28;66079;-34
2024/02/14 02:33:08;;;;;;;3.38;3.17;;;;;;;32.00;63.67;101396.09;5041330;28;69179;-34
2024/02/14 02:35:44;;;;;;;3.50;3.27;;;;;;;31.87;63.56;101368.97;5041062;28;66604;-33
2024/02/14 02:38:36;;;;;;;5.03;3.17;;;;;;;32.05;63.33;101392.72;5040590;28;69753;-34
2024/02/14 02:41:26;;;;;;;5.18;3.85;;;;;;;32.10;63.14;101394.81;5033310;28;65942;-34
2024/02/14 02:44:15;;;;;;;3.35;2.95;;;;;;;32.10;63.22;101394.81;5040447;28;70469;-33
2024/02/14 02:47:06;;;;;;;3.88;2.80;;;;;;;32.13;63.33;101392.47;5021888;28;65871;-33
2024/02/14 02:49:57;;;;;;;6.72;3.20;;;;;;;32.15;63.28;101389.53;5039926;28;69828;-33
2024/02/14 02:52:48;;;;;;;2.97;2.75;;;;;;;32.16;63.18;101383.06;5040510;28;65828;-35
2024/02/14 02:55:38;;;;;;;2.92;2.67;;;;;;;32.19;63.25;101382.63;5039378;28;69858;-34
2024/02/14 02:58:10;;;;;;;2.72;2.53;;;;;;;32.18;62.99;101375.53;5038006;28;66016;-35
2024/02/14 03:00:40;;;;;;;;;;;;;;;32.19;63.22;101382.63;5035885;28;70059;-33
2024/02/14 03:03:21;;;;;;;2.95;2.15;;;;;;;32.27;63.11;101385.09;5034493;28;66226;-34
2024/02/14 03:06:06;;;;;;;2.50;2.30;;;;;;;32.23;63.02;101367.56;5040067;28;68875;-33
2024/02/14 03:08:57;;;;;;;2.20;2.00;;;;;;;32.32;62.88;101377.13;5039898;28;65961;-33
2024/02/14 03:11:48;;;;;;;2.90;2.38;;;;;;;32.32;62.87;101371.72;5038458;28;69472;-34
2024/02/14 03:14:39;;;;;;;2.03;1.77;;;;;;;32.32;62.86;101371.72;5040088;28;65423;-35
2024/02/14 03:17:29;;;;;;;4.68;2.40;;;;;;;32.35;62.85;101365.84;5038715;28;69096;-33
2024/02/14 03:20:00;;;;;;;2.45;2.20;;;;;;;32.37;63.03;101374.56;5040759;28;64854;-34
2024/02/14 03:22:37;;;;;;;1.90;1.80;;;;;;;32.37;63.01;101355.56;5040833;28;69196;-35
2024/02/14 03:25:08;;;;;;;1.88;1.77;;;;;;;32.42;63.00;101350.31;5038880;28;66121;-33
2024/02/14 03:27:52;;;;;;;2.28;2.08;;;;;;;32.43;62.72;101352.00;5040744;28;70065;-34
2024/02/14 03:30:23;;;;;;;2.55;2.00;;;;;;;32.45;62.82;101339.00;5039260;28;66077;-34
2024/02/14 03:32:54;;;;;;;2.60;2.40;;;;;;;32.45;62.72;101328.16;5040584;28;69211;-34
2024/02/14 03:35:27;;;;;;;5.70;2.45;;;;;;;32.51;62.51;101339.22;5053694;28;65781;-34
2024/02/14 03:38:00;;;;;;;3.60;2.67;;;;;;;32.48;62.43;101321.47;5032185;28;70546;-34
2024/02/14 03:40:31;;;;;;;2.60;2.38;;;;;;;32.55;62.53;101324.16;5034328;28;65790;-35
2024/02/14 03:43:02;;;;;;;3.17;2.00;;;;;;;32.57;62.46;101327.47;5039056;28;69298;-35
2024/02/14 03:45:33;;;;;;;2.43;2.03;;;;;;;32.59;62.17;101312.63;5038740;28;67546;-34
2024/02/14 03:48:05;;;;;;;3.30;2.45;;;;;;;32.62;62.25;101328.47;5040269;28;69308;-34
2024/02/14 03:50:36;;;;;;;2.72;2.53;;;;;;;32.64;62.12;101322.81;5040756;28;66214;-33
2024/02/14 03:53:10;;;;;;;2.67;2.47;;;;;;;32.65;62.39;101314.47;5040182;28;70073;-34
2024/02/14 03:55:41;;;;;;;2.60;2.40;;;;;;;32.67;62.14;101308.78;5041111;28;66508;-33
2024/02/14 03:58:14;;;;;;;3.53;3.22;;;;;;;32.71;62.21;101299.16;5038030;28;70544;-34
2024/02/14 04:00:48;;;;;;;4.57;3.00;;;;;;;32.71;61.88;101293.72;5039480;28;65546;-34
2024/02/14 04:03:19;;;;;;;3.42;3.22;;;;;;;32.76;61.89;101287.59;5028948;28;70452;-34
2024/02/14 04:05:50;;;;;;;13.77;5.03;;;;;;;32.77;61.79;101278.41;5037307;28;65302;-34
2024/02/14 04:08:21;;;;;;;6.63;5.07;;;;;;;32.79;61.99;101273.56;5038959;28;70317;-33
2024/02/14 04:10:54;;;;;;;6.05;4.90;;;;;;;32.81;61.83;101277.72;5039472;28;65531;-34
2024/02/14 04:13:25;;;;;;;5.55;4.88;;;;;;;32.86;61.62;101272.47;5036914;28;69560;-34
2024/02/14 04:15:56;;;;;;;11.85;4.90;;;;;;;32.91;61.45;101272.63;5039631;28;65544;-34
2024/02/14 04:18:33;;;;;;;5.15;4.65;;;;;;;32.92;61.68;101252.53;5037791;28;69936;-34
2024/02/14 04:21:10;;;;;;;4.65;4.25;;;;;;;32.95;61.27;101248.53;5040083;28;43004;-35
2024/02/14 04:23:42;;;;;;;4.53;4.22;;;;;;;32.97;61.37;101248.31;5039526;28;70387;-34
2024/02/14 04:26:20;;;;;;;4.57;3.88;;;;;;;32.83;61.23;101225.91;5037071;28;66405;-35
2024/02/14 04:28:51;;;;;;;3.88;3.58;;;;;;;33.00;61.45;101240.56;5038401;28;70134;-36
2024/02/14 04:31:23;;;;;;;3.90;3.60;;;;;;;32.99;61.46;101219.88;5038816;28;66623;-34
2024/02/14 04:34:05;;;;;;;3.63;3.33;;;;;;;33.04;61.50;101230.94;5037525;28;69997;-33
2024/02/14 04:36:36;;;;;;;3.42;3.22;;;;;;;33.07;61.35;101226.91;5035592;28;65852;-33
2024/02/14 04:39:09;;;;;;;3.83;3.47;;;;;;;33.08;61.66;101215.81;5036121;28;70668;-33
2024/02/14 04:41:39;;;;;;;3.75;2.97;;;;;;;33.11;61.64;101218.06;5038775;28;65892;-33
2024/02/14 04:44:26;;;;;;;3.70;2.95;;;;;;;33.14;61.25;101201.31;5035043;28;70110;-34
2024/02/14 04:46:58;;;;;;;5.55;2.97;;;;;;;33.16;61.19;101192.94;5038703;28;67152;-35
2024/02/14 04:49:32;;;;;;;2.58;2.38;;;;;;;33.10;61.34;101185.69;5026942;28;69915;-34
2024/02/14 04:52:04;;;;;;;2.45;2.25;;;;;;;33.19;61.16;101187.03;5038624;28;65629;-33
2024/02/14 04:54:34;;;;;;;;;;;;;;;33.16;61.18;101179.34;5039224;28;69639;-33
2024/02/14 04:57:05;;;;;;;4.80;2.38;;;;;;;33.25;60.80;101164.38;5036852;28;66812;-33
2024/02/14 04:59:36;;;;;;;2.28;2.08;;;;;;;33.26;60.80;101163.28;5038339;28;70717;-34
2024/02/14 05:02:07;;;;;;;2.65;2.45;;;;;;;33.28;60.99;101163.06;5038533;28;66163;-34
2024/02/14 05:04:39;;;;;;;2.60;2.40;;;;;;;33.27;61.24;101148.66;5037327;28;70791;-34
2024/02/14 05:07:10;;;;;;;2.15;1.95;;;;;;;33.30;60.96;101145.47;5029887;28;65329;-34
2024/02/14 05:09:41;;;;;;;2.90;2.00;;;;;;;33.29;60.98;101138.38;5032255;28;70196;-33
2024/02/14 05:12:11;;;;;;;2.33;2.10;;;;;;;33.32;61.02;101127.06;5036059;28;65859;-33
2024/02/14 05:14:42;;;;;;;2.23;1.90;;;;;;;33.36;60.63;101124.69;5038595;28;70080;-34
2024/02/14 05:17:13;;;;;;;2.00;1.80;;;;;;;33.37;60.88;101119.00;5036624;28;65608;-33
2024/02/14 05:19:44;;;;;;;3.05;2.25;;;;;;;33.41;61.17;101113.13;5035154;28;69570;-33
2024/02/14 05:22:15;;;;;;;2.13;1.93;;;;;;;33.42;60.97;101109.34;5036840;28;66098;-33
2024/02/14 05:24:46;;;;;;;2.50;2.08;;;;;;;33.45;60.77;101103.44;5037846;28;71131;-33
2024/02/14 05:27:19;;;;;;;2.42;2.22;;;;;;;33.47;60.55;101101.31;5036848;28;67055;-35
2024/02/14 05:29:50;;;;;;;1.95;1.83;;;;;;;33.49;60.62;101091.00;5042436;28;70103;-34
2024/02/14 05:32:21;;;;;;;1.83;1.73;;;;;;;33.49;60.54;101088.28;5042002;28;65688;-34
2024/02/14 05:34:52;;;;;;;;;;;;;;;33.47;60.39;101074.94;5032936;27;69749;-34
2024/02/14 05:37:23;;;;;;;3.28;2.00;;;;;;;33.56;60.57;101067.28;5035169;28;66161;-35
2024/02/14 05:39:55;;;;;;;1.67;1.58;;;;;;;33.58;60.55;101066.00;5035279;28;70092;-33
2024/02/14 05:42:27;;;;;;;2.08;1.95;;;;;;;33.60;60.48;101060.34;5038567;28;65853;-34
2024/02/14 05:44:58;;;;;;;1.65;1.55;;;;;;;33.63;60.70;101056.28;5035906;28;69969;-33
2024/02/14 05:47:32;;;;;;;1.95;1.60;;;;;;;33.65;60.39;101043.28;5034197;28;66095;-34
2024/02/14 05:50:04;;;;;;;1.60;1.50;;;;;;;33.65;60.31;101044.13;5031182;28;70376;-34
2024/02/14 05:52:35;;;;;;;4.15;1.60;;;;;;;33.67;60.43;101030.28;5037467;28;66163;-34
2024/02/14 05:55:08;;;;;;;1.95;1.60;;;;;;;33.70;60.22;101025.19;5036064;28;70084;-34
2024/02/14 05:57:52;;;;;;;1.48;1.35;;;;;;;33.72;60.30;101023.09;5036700;28;65963;-34
2024/02/14 06:00:23;;;;;;;1.95;1.30;;;;;;;33.74;60.44;101007.34;5032885;28;70440;-33
2024/02/14 06:02:58;;;;;;;1.55;1.40;;;;;;;33.72;60.26;101012.19;5037497;28;65804;-34
2024/02/14 06:05:29;;;;;;;1.80;1.50;;;;;;;33.78;60.31;101007.69;5036456;28;69499;-34
2024/02/14 06:08:03;;;;;;;2.38;1.55;;;;;;;33.81;60.17;100999.88;5035877;28;66328;-33
2024/02/14 06:10:34;;;;;;;2.45;1.33;;;;;;;33.83;60.02;101002.38;5036242;28;70455;-34
2024/02/14 06:13:05;;;;;;;1.50;1.40;;;;;;;33.86;59.93;101006.53;5038257;28;66086;-34
2024/02/14 06:15:36;;;;;;;1.30;1.20;;;;;;;33.88;60.23;100993.47;5037196;28;70569;-34
2024/02/14 06:18:07;;;;;;;1.27;1.10;;;;;;;33.88;59.77;100982.59;5039439;28;66414;-34
2024/02/14 06:20:43;;;;;;;2.33;1.60;;;;;;;33.93;60.18;100980.00;5038500;28;70174;-35
2024/02/14 06:23:14;;;;;;;1.58;1.13;;;;;;;33.95;59.83;100966.97;5039883;28;65898;-35
2024/02/14 06:25:45;;;;;;;1.35;1.10;;;;;;;33.97;59.89;100964.84;5036369;28;69626;-34
2024/02/14 06:28:16;;;;;;;1.70;1.30;;;;;;;33.98;59.89;100958.34;5038294;28;66606;-33
2024/02/14 06:30:47;;;;;;;1.10;1.00;;;;;;;34.02;60.31;100951.38;5039620;28;69284;-33
2024/02/14 06:33:18;;;;;;;2.35;1.23;;;;;;;34.03;59.98;100942.13;5022314;28;66343;-33
2024/02/14 06:35:51;;;;;;;1.52;1.05;;;;;;;34.08;59.75;100939.53;5038053;28;70804;-33
2024/02/14 06:38:22;;;;;;;2.20;1.00;;;;;;;34.10;59.96;100937.41;5039142;28;66557;-35
2024/02/14 06:40:56;;;;;;;3.30;1.10;;;;;;;34.13;59.75;100936.06;5040514;28;70177;-33
2024/02/14 06:43:30;;;;;;;1.35;1.00;;;;;;;34.14;59.70;100922.22;5037210;28;66456;-34
2024/02/14 06:46:01;;;;;;;2.70;1.13;;;;;;;34.17;59.54;100921.75;5038478;28;71214;-34
2024/02/14 06:48:37;;;;;;;1.10;1.00;;;;;;;34.22;59.89;100916.41;5037744;28;65382;-35
2024/02/14 06:51:08;;;;;;;1.65;1.10;;;;;;;34.25;59.71;100918.63;5040137;28;69805;-34
2024/02/14 06:53:39;;;;;;;1.98;1.20;;;;;;;34.28;59.80;100905.63;5035380;28;65036;-34
2024/02/14 06:56:13;;;;;;;1.38;1.27;;;;;;;34.31;60.03;100905.13;5037479;28;70007;-33
2024/02/14 06:58:44;;;;;;;1.98;1.55;;;;;;;34.31;59.45;100899.69;5033535;28;65750;-33
2024/02/14 07:01:18;;;;;;;1.30;1.20;;;;;;;34.36;59.97;100910.69;5038651;28;70353;-33
2024/02/14 07:03:50;;;;;;;1.45;1.27;;;;;;;34.37;59.65;100894.06;5035435;28;65781;-34
2024/02/14 07:06:24;;;;;;;1.20;1.08;;;;;;;34.41;59.27;100889.81;5040681;28;71330;-36
2024/02/14 07:08:55;;;;;;;1.13;1.02;;;;;;;34.44;59.48;100889.31;5037486;28;65367;-34
2024/02/14 07:11:26;;;;;;;1.45;1.30;;;;;;;34.45;59.80;100879.25;5038963;28;69185;-33
2024/02/14 07:13:57;;;;;;;1.17;1.08;;;;;;;34.47;58.91;100874.38;5040621;28;66614;-34
2024/02/14 07:16:28;;;;;;;4.37;1.20;;;;;;;34.54;58.65;100879.66;5038484;28;70196;-34
2024/02/14 07:18:58;;;;;;;1.13;1.02;;;;;;;34.50;57.58;100870.34;5040368;28;66716;-34
2024/02/14 07:21:32;;;;;;;1.42;1.10;;;;;;;34.42;57.98;100853.31;5039064;28;69197;-34
2024/02/14 07:24:05;;;;;;;1.23;1.13;;;;;;;34.57;57.67;100865.59;5038967;28;65416;-34
2024/02/14 07:26:41;;;;;;;2.05;1.10;;;;;;;34.60;58.04;100876.00;5038009;28;70251;-36
2024/02/14 07:29:13;;;;;;;2.05;0.95;;;;;;;34.65;57.99;100873.34;5038394;28;65961;-33
2024/02/14 07:31:44;;;;;;;1.05;0.90;;;;;;;34.68;58.05;100873.69;5039880;28;69831;-36
2024/02/14 07:34:15;;;;;;;1.97;1.10;;;;;;;34.69;57.85;100874.53;5039678;28;66536;-35
2024/02/14 07:36:47;;;;;;;1.23;1.13;;;;;;;34.54;57.54;100842.34;5037289;28;69795;-35
2024/02/14 07:39:17;;;;;;;;;;;;;;;34.72;57.51;100871.31;5038927;28;65485;-34
2024/02/14 07:41:47;;;;;;;2.25;1.20;;;;;;;34.77;57.71;100865.94;5039620;28;70309;-34
2024/02/14 07:44:18;;;;;;;1.10;1.00;;;;;;;34.83;57.93;100864.97;5037013;28;65273;-35
2024/02/14 07:46:52;;;;;;;1.10;1.00;;;;;;;34.82;57.36;100860.56;5039040;28;68690;-34
2024/02/14 07:49:26;;;;;;;2.97;1.30;;;;;;;34.91;58.00;100867.28;5035904;28;66187;-35
2024/02/14 07:51:57;;;;;;;1.20;1.10;;;;;;;34.93;57.93;100858.81;5039092;28;70720;-35
2024/02/14 07:54:28;;;;;;;1.20;1.10;;;;;;;34.97;58.15;100849.09;5039342;28;66896;-34
2024/02/14 07:56:59;;;;;;;1.88;1.00;;;;;;;35.01;57.96;100855.69;5039184;28;69613;-36
2024/02/14 07:59:29;;;;;;;1.50;1.10;;;;;;;35.04;57.37;100849.72;5039143;28;66794;-34
2024/02/14 08:02:01;;;;;;;1.37;1.27;;;;;;;35.08;58.15;100848.19;5039068;28;70008;-35
2024/02/14 08:04:34;;;;;;;1.20;1.10;;;;;;;35.15;57.46;100848.00;5037978;28;66422;-33
2024/02/14 08:07:05;;;;;;;1.30;0.97;;;;;;;35.18;57.52;100846.69;5039370;28;69595;-34
2024/02/14 08:09:36;;;;;;;1.08;0.85;;;;;;;35.20;57.78;100847.28;5040080;28;65739;-35
2024/02/14 08:12:07;;;;;;;1.83;0.80;;;;;;;35.25;57.87;100845.44;5036831;28;70102;-34
2024/02/14 08:14:38;;;;;;;0.80;0.80;;;;;;;35.28;57.85;100844.13;5034812;28;65450;-34
2024/02/14 08:17:09;;;;;;;2.05;0.80;;;;;;;35.25;57.33;100828.25;5039333;28;70121;-33
2024/02/14 08:19:42;;;;;;;1.27;1.05;;;;;;;35.35;57.39;100842.88;5036792;28;66304;-33
2024/02/14 08:22:14;;;;;;;3.70;1.08;;;;;;;35.36;57.71;100832.78;5038887;28;68926;-34
2024/02/14 08:24:47;;;;;;;1.48;1.00;;;;;;;35.43;57.81;100830.69;5038316;28;66698;-36
2024/02/14 08:27:20;;;;;;;2.30;1.05;;;;;;;35.49;57.79;100828.84;5036914;28;70463;-35
2024/02/14 08:29:53;;;;;;;1.73;1.35;;;;;;;35.50;57.48;100825.88;5037549;28;65552;-35
2024/02/14 08:32:24;;;;;;;1.10;1.00;;;;;;;35.55;57.58;100825.94;5036219;28;69970;-35
2024/02/14 08:34:56;;;;;;;1.27;1.17;;;;;;;35.62;57.67;100827.69;5039746;28;65780;-36
2024/02/14 08:37:27;;;;;;;1.50;1.40;;;;;;;35.66;57.44;100835.09;5036137;28;70268;-34
2024/02/14 08:39:58;;;;;;;1.37;1.00;;;;;;;35.69;57.51;100825.56;5037161;28;65573;-35
2024/02/14 08:42:29;;;;;;;1.33;1.20;;;;;;;35.75;57.06;100824.56;5038549;28;71427;-34
2024/02/14 08:45:00;;;;;;;2.10;1.17;;;;;;;35.80;56.95;100830.06;5038863;28;66461;-34
2024/02/14 08:47:31;;;;;;;1.23;1.05;;;;;;;35.83;57.57;100831.47;5027865;28;68926;-35
2024/02/14 08:50:03;;;;;;;4.35;1.73;;;;;;;35.87;57.55;100830.69;5038922;28;66639;-37
2024/02/14 08:52:35;;;;;;;3.90;1.60;;;;;;;35.90;57.50;100835.66;5037756;28;70193;-34
2024/02/14 08:55:17;;;;;;;1.60;1.50;;;;;;;35.96;57.61;100834.63;5030115;28;66155;-33
2024/02/14 08:57:47;;;;;;;3.05;1.67;;;;;;;36.02;56.83;100828.16;5036682;28;69911;-35
2024/02/14 09:00:19;;;;;;;2.40;1.70;;;;;;;36.06;57.20;100827.66;5035471;28;66508;-34
2024/02/14 09:02:50;;;;;;;2.63;1.92;;;;;;;36.13;56.98;100833.72;5038025;28;69023;-35
2024/02/14 09:05:22;;;;;;;4.15;1.52;;;;;;;36.18;57.03;100836.50;5036360;28;65177;-34
2024/02/14 09:07:53;;;;;;;2.60;1.70;;;;;;;36.24;57.55;100840.94;5036275;28;70237;-34
2024/02/14 09:10:24;;;;;;;1.90;1.70;;;;;;;36.25;57.58;100842.59;5037736;28;68230;-34
2024/02/14 09:12:55;;;;;;;1.43;1.23;;;;;;;36.32;57.36;100842.38;5034933;28;69452;-34
2024/02/14 09:15:26;;;;;;;3.58;1.65;;;;;;;36.36;57.48;100838.03;5027814;28;66606;-35
2024/02/14 09:17:57;;;;;;;3.95;1.60;;;;;;;36.39;57.13;100843.81;5036386;28;70419;-36
2024/02/14 09:20:29;;;;;;;2.42;1.80;;;;;;;36.43;56.77;100852.31;5037143;28;66219;-36
2024/02/14 09:23:01;;;;;;;4.25;1.83;;;;;;;36.51;57.23;100864.69;5038617;28;70160;-37
2024/02/14 09:25:31;;;;;;;2.95;2.17;;;;;;;36.51;57.22;100862.78;5039460;28;66671;-35
2024/02/14 09:28:04;;;;;;;3.13;1.83;;;;;;;36.55;56.97;100863.94;5037533;28;69906;-34
2024/02/14 09:30:35;;;;;;;1.92;1.80;;;;;;;36.59;56.52;100870.53;5037858;28;66247;-34
2024/02/14 09:33:09;;;;;;;4.18;1.95;;;;;;;36.63;57.18;100866.19;5036820;28;70323;-34
2024/02/14 09:35:44;;;;;;;2.70;1.65;;;;;;;36.67;56.86;100869.25;5036540;28;66566;-34
2024/02/14 09:38:15;;;;;;;3.53;2.10;;;;;;;36.70;57.21;100874.19;5037448;28;69590;-34
2024/02/14 09:41:33;;;;;;;3.10;2.10;;;;;;;36.68;56.22;100876.34;5036018;28;66520;-34
2024/02/14 09:44:04;;;;;;;2.20;2.00;;;;;;;36.71;56.62;100872.28;5036530;28;69554;-35
2024/02/14 09:46:39;;;;;;;3.10;2.03;;;;;;;36.78;56.17;100881.91;5030819;28;66119;-34
2024/02/14 09:49:11;;;;;;;3.63;2.80;;;;;;;36.81;56.60;100884.13;5038493;28;69627;-34
2024/02/14 09:51:47;;;;;;;4.20;2.50;;;;;;;36.84;56.43;100890.97;5035564;28;65997;-34
2024/02/14 09:54:21;;;;;;;3.85;2.35;;;;;;;36.86;56.90;100892.38;5037227;28;70426;-34
2024/02/14 09:56:53;;;;;;;;;;;;;;;36.82;56.87;100893.13;5036675;28;65169;-34
2024/02/14 09:59:24;;;;;;;4.20;3.15;;;;;;;36.90;56.91;100893.47;5037146;28;70660;-34
2024/02/14 10:01:55;;;;;;;3.30;3.00;;;;;;;36.91;57.07;100891.56;5037774;28;66670;-36
2024/02/14 10:04:26;;;;;;;3.67;3.10;;;;;;;36.95;57.08;100894.63;5035076;28;70333;-35
2024/02/14 10:06:58;;;;;;;4.18;3.50;;;;;;;36.99;56.40;100901.19;5037895;28;66134;-34
2024/02/14 10:09:32;;;;;;;6.35;3.53;;;;;;;36.94;56.47;100901.16;5036022;28;70237;-34
2024/02/14 10:12:08;;;;;;;4.07;3.13;;;;;;;37.00;56.69;100911.03;5038861;28;66542;-34
2024/02/14 10:14:40;;;;;;;3.85;3.38;;;;;;;37.01;56.36;100899.03;5035102;28;69405;-35
2024/02/14 10:17:19;;;;;;;4.25;3.85;;;;;;;36.97;55.90;100908.81;5037523;28;66059;-34
2024/02/14 10:20:05;;;;;;;5.10;4.70;;;;;;;37.00;56.58;100911.03;5037235;28;69902;-33
2024/02/14 10:22:39;;;;;;;9.43;6.00;;;;;;;37.00;56.06;100913.78;5038870;28;65835;-35
2024/02/14 10:25:11;;;;;;;7.55;6.85;;;;;;;37.00;56.49;100911.03;5041300;28;70647;-34
2024/02/14 10:27:42;;;;;;;8.23;7.43;;;;;;;36.96;56.86;100918.13;5041036;28;65503;-34
2024/02/14 10:30:14;;;;;;;8.38;7.65;;;;;;;37.00;56.54;100925.56;5040633;28;70007;-33
2024/02/14 10:32:47;;;;;;;9.65;8.60;;;;;;;36.96;56.83;100918.13;5041649;28;65514;-35
2024/02/14 10:35:22;;;;;;;12.05;9.10;;;;;;;36.97;56.50;100930.69;5039790;28;70278;-34
2024/02/14 10:38:00;;;;;;;8.23;7.50;;;;;;;36.93;56.59;100932.31;5035162;28;66146;-34
2024/02/14 10:40:33;;;;;;;8.57;7.93;;;;;;;36.88;56.44;100931.19;5039517;28;70385;-39
2024/02/14 10:43:10;;;;;;;12.25;7.80;;;;;;;36.90;56.12;100929.00;5039316;28;66332;-35
2024/02/14 10:45:42;;;;;;;9.85;6.97;;;;;;;36.91;56.54;100938.84;5038157;28;69402;-33
2024/02/14 10:48:12;;;;;;;;;;;;;;;36.79;56.80;100943.69;5036552;28;65876;-34
2024/02/14 10:50:45;;;;;;;7.78;6.18;;;;;;;36.91;56.89;100943.50;5033668;28;70327;-35
2024/02/14 10:53:16;;;;;;;6.53;5.93;;;;;;;36.86;56.29;100952.50;5035925;28;66051;-33
2024/02/14 10:55:51;;;;;;;5.90;5.40;;;;;;;36.79;56.85;100954.63;5024842;28;68269;-34
2024/02/14 10:58:26;;;;;;;7.85;5.93;;;;;;;36.68;56.76;100936.47;5035436;28;66470;-36
2024/02/14 11:00:59;;;;;;;8.20;5.15;;;;;;;36.79;56.43;100967.47;5049835;28;70303;-36
2024/02/14 11:03:30;;;;;;;5.50;4.82;;;;;;;36.77;56.47;100969.63;5033282;28;66589;-34
2024/02/14 11:06:03;;;;;;;5.68;5.18;;;;;;;36.74;56.98;100973.69;5036510;28;69499;-34
2024/02/14 11:08:39;;;;;;;5.88;5.38;;;;;;;36.68;56.96;100972.81;5049709;28;65641;-34
2024/02/14 11:11:12;;;;;;;6.38;5.78;;;;;;;36.64;56.76;100977.16;5025923;28;70468;-35
2024/02/14 11:13:44;;;;;;;6.95;5.00;;;;;;;36.62;57.23;100981.22;5037704;28;66062;-34
2024/02/14 11:16:15;;;;;;;6.68;5.50;;;;;;;36.60;56.73;100988.84;5035752;28;69837;-34
2024/02/14 11:18:46;;;;;;;6.75;6.15;;;;;;;36.57;56.74;100981.19;5035351;28;66628;-33
2024/02/14 11:21:18;;;;;;;5.65;5.18;;;;;;;36.52;56.94;100989.28;5036048;28;71040;-34
2024/02/14 11:23:58;;;;;;;9.63;6.03;;;;;;;36.48;57.63;100988.97;5033264;28;65640;-35
2024/02/14 11:26:47;;;;;;;9.82;7.45;;;;;;;36.26;57.59;100964.41;5034885;28;71175;-34
2024/02/14 11:29:20;;;;;;;7.55;6.78;;;;;;;36.42;57.95;100999.03;5034208;28;66129;-35
2024/02/14 11:32:00;;;;;;;9.70;6.90;;;;;;;36.34;57.89;100999.47;5035912;28;69087;-35
2024/02/14 11:34:34;;;;;;;7.70;7.00;;;;;;;36.31;57.47;100999.16;5026222;28;67367;-33
2024/02/14 11:37:10;;;;;;;8.73;6.80;;;;;;;36.31;57.25;101010.09;5030494;28;69209;-33
2024/02/14 11:39:46;;;;;;;9.55;7.10;;;;;;;36.22;57.27;100996.06;5035083;28;65999;-33
2024/02/14 11:42:18;;;;;;;10.18;7.05;;;;;;;36.21;57.58;101006.13;5035870;28;70591;-34
2024/02/14 11:44:49;;;;;;;8.52;6.35;;;;;;;36.17;58.06;101013.19;5034532;28;66209;-35
2024/02/14 11:47:20;;;;;;;7.72;6.50;;;;;;;36.17;57.97;101012.38;5033729;28;69988;-34
2024/02/14 11:49:52;;;;;;;9.00;6.32;;;;;;;36.13;57.33;101013.94;5035147;28;66086;-35
2024/02/14 11:52:23;;;;;;;5.85;5.35;;;;;;;36.06;57.45;101008.69;5035417;28;71260;-34
2024/02/14 11:54:56;;;;;;;6.20;5.60;;;;;;;36.08;57.30;101016.59;5035329;28;67555;-34
2024/02/14 11:57:27;;;;;;;6.38;5.78;;;;;;;36.02;57.96;101019.25;5038489;28;69108;-35